sensor_id;sensor_type;location;lat;lon;timestamp;pressure;altitude;pressure_sealevel;temperature;humidity
69306;BME280;56427;51.580;4.656;2023-01-05T00:00:10;101689.22;;;9.53;100.00
69306;BME280;56427;51.580;4.656;2023-01-05T00:02:35;101696.81;;;9.56;100.00
69306;BME280;56427;51.580;4.656;2023-01-05T00:05:00;101703.66;;;9.57;100.00
69306;BME280;56427;51.580;4.656;2023-01-05T00:07:26;101696.28;;;9.51;100.00
69306;BME280;56427;51.580;4.656;2023-01-05T00:09:51;101700.31;;;9.55;100.00
69306;BME280;56427;51.580;4.656;2023-01-05T00:12:16;101706.13;;;9.46;100.00
69306;BME280;56427;51.580;4.656;2023-01-05T00:15:00;101699.16;;;9.47;100.00
69306;BME280;56427;51.580;4.656;2023-01-05T00:17:44;101700.13;;;9.46;100.00
69306;BME280;56427;51.580;4.656;2023-01-05T00:20:28;101708.81;;;9.45;100.00
69306;BME280;56427;51.580;4.656;2023-01-05T00:23:12;101693.75;;;9.37;100.00
69306;BME280;56427;51.580;4.656;2023-01-05T00:25:39;101696.97;;;9.40;100.00
69306;BME280;56427;51.580;4.656;2023-01-05T00:28:05;101694.06;;;9.45;100.00
69306;BME280;56427;51.580;4.656;2023-01-05T00:30:42;101701.41;;;9.38;100.00
69306;BME280;56427;51.580;4.656;2023-01-05T00:33:13;101698.81;;;9.38;100.00
69306;BME280;56427;51.580;4.656;2023-01-05T00:35:39;101701.13;;;9.43;100.00
69306;BME280;56427;51.580;4.656;2023-01-05T00:38:05;101689.50;;;9.36;100.00
69306;BME280;56427;51.580;4.656;2023-01-05T00:40:30;101690.81;;;9.29;100.00
69306;BME280;56427;51.580;4.656;2023-01-05T00:42:57;101697.03;;;9.26;100.00
69306;BME280;56427;51.580;4.656;2023-01-05T00:45:25;101692.88;;;9.24;100.00
69306;BME280;56427;51.580;4.656;2023-01-05T00:47:50;101698.78;;;9.26;100.00
69306;BME280;56427;51.580;4.656;2023-01-05T00:50:18;101700.09;;;9.18;100.00
69306;BME280;56427;51.580;4.656;2023-01-05T00:52:44;101693.16;;;9.19;100.00
69306;BME280;56427;51.580;4.656;2023-01-05T00:55:10;101702.88;;;9.15;100.00
69306;BME280;56427;51.580;4.656;2023-01-05T00:57:35;101708.97;;;9.14;100.00
69306;BME280;56427;51.580;4.656;2023-01-05T01:00:02;101712.06;;;9.07;100.00
69306;BME280;56427;51.580;4.656;2023-01-05T01:02:28;101708.25;;;9.12;100.00
69306;BME280;56427;51.580;4.656;2023-01-05T01:04:53;101708.69;;;9.19;100.00
69306;BME280;56427;51.580;4.656;2023-01-05T01:07:18;101706.88;;;9.21;100.00
69306;BME280;56427;51.580;4.656;2023-01-05T01:09:44;101717.44;;;9.31;100.00
69306;BME280;56427;51.580;4.656;2023-01-05T01:12:09;101710.44;;;9.33;100.00
69306;BME280;56427;51.580;4.656;2023-01-05T01:14:35;101709.56;;;9.32;100.00
69306;BME280;56427;51.580;4.656;2023-01-05T01:17:00;101703.75;;;9.29;100.00
69306;BME280;56427;51.580;4.656;2023-01-05T01:19:26;101703.97;;;9.26;100.00
69306;BME280;56427;51.580;4.656;2023-01-05T01:21:52;101705.81;;;9.24;100.00
69306;BME280;56427;51.580;4.656;2023-01-05T01:24:21;101712.69;;;9.25;100.00
69306;BME280;56427;51.580;4.656;2023-01-05T01:26:47;101717.44;;;9.31;100.00
69306;BME280;56427;51.580;4.656;2023-01-05T01:29:12;101710.44;;;9.33;100.00
69306;BME280;56427;51.580;4.656;2023-01-05T01:31:38;101731.53;;;9.27;100.00
69306;BME280;56427;51.580;4.656;2023-01-05T01:34:03;101729.47;;;9.32;100.00
69306;BME280;56427;51.580;4.656;2023-01-05T01:36:28;101726.97;;;9.30;100.00
69306;BME280;56427;51.580;4.656;2023-01-05T01:38:54;101734.66;;;9.32;100.00
69306;BME280;56427;51.580;4.656;2023-01-05T01:41:19;101747.91;;;9.27;100.00
69306;BME280;56427;51.580;4.656;2023-01-05T01:43:52;101746.44;;;9.23;100.00
69306;BME280;56427;51.580;4.656;2023-01-05T01:46:19;101746.88;;;9.30;100.00
69306;BME280;56427;51.580;4.656;2023-01-05T01:48:48;101756.13;;;9.34;100.00
69306;BME280;56427;51.580;4.656;2023-01-05T01:51:25;101760.00;;;9.41;100.00
69306;BME280;56427;51.580;4.656;2023-01-05T01:53:54;101762.50;;;9.43;100.00
69306;BME280;56427;51.580;4.656;2023-01-05T01:56:23;101758.94;;;9.44;100.00
69306;BME280;56427;51.580;4.656;2023-01-05T01:58:50;101764.13;;;9.44;100.00
69306;BME280;56427;51.580;4.656;2023-01-05T02:01:16;101760.72;;;9.43;100.00
69306;BME280;56427;51.580;4.656;2023-01-05T02:03:41;101773.09;;;9.52;100.00
69306;BME280;56427;51.580;4.656;2023-01-05T02:06:07;101776.41;;;9.54;100.00
69306;BME280;56427;51.580;4.656;2023-01-05T02:08:33;101774.75;;;9.53;100.00
69306;BME280;56427;51.580;4.656;2023-01-05T02:16:51;101773.09;;;9.52;100.00
69306;BME280;56427;51.580;4.656;2023-01-05T02:24:55;101764.00;;;9.60;100.00
69306;BME280;56427;51.580;4.656;2023-01-05T02:38:52;101769.81;;;9.63;100.00
69306;BME280;56427;51.580;4.656;2023-01-05T02:41:27;101771.28;;;9.67;100.00
69306;BME280;56427;51.580;4.656;2023-01-05T02:43:56;101770.53;;;9.65;100.00
69306;BME280;56427;51.580;4.656;2023-01-05T02:46:21;101765.44;;;9.64;100.00
69306;BME280;56427;51.580;4.656;2023-01-05T02:48:48;101782.56;;;9.66;100.00
69306;BME280;56427;51.580;4.656;2023-01-05T02:51:20;101775.81;;;9.64;100.00
69306;BME280;56427;51.580;4.656;2023-01-05T02:53:50;101785.06;;;9.68;100.00
69306;BME280;56427;51.580;4.656;2023-01-05T02:56:22;101795.06;;;9.74;100.00
69306;BME280;56427;51.580;4.656;2023-01-05T02:58:57;101795.06;;;9.74;100.00
69306;BME280;56427;51.580;4.656;2023-01-05T03:01:30;101794.09;;;9.75;100.00
69306;BME280;56427;51.580;4.656;2023-01-05T03:04:00;101789.00;;;9.73;100.00
69306;BME280;56427;51.580;4.656;2023-01-05T03:06:34;101789.25;;;9.70;100.00
69306;BME280;56427;51.580;4.656;2023-01-05T03:09:13;101790.16;;;9.69;100.00
69306;BME280;56427;51.580;4.656;2023-01-05T03:11:48;101786.84;;;9.67;100.00
69306;BME280;56427;51.580;4.656;2023-01-05T03:14:45;101788.59;;;9.67;100.00
69306;BME280;56427;51.580;4.656;2023-01-05T03:17:14;101781.94;;;9.63;100.00
69306;BME280;56427;51.580;4.656;2023-01-05T03:19:42;101782.66;;;9.65;100.00
69306;BME280;56427;51.580;4.656;2023-01-05T03:24:59;101787.94;;;9.63;100.00
69306;BME280;56427;51.580;4.656;2023-01-05T03:27:44;101797.31;;;9.66;100.00
69306;BME280;56427;51.580;4.656;2023-01-05T03:33:58;101791.38;;;9.64;100.00
69306;BME280;56427;51.580;4.656;2023-01-05T03:36:48;101796.53;;;9.64;100.00
69306;BME280;56427;51.580;4.656;2023-01-05T03:39:16;101800.09;;;9.63;100.00
69306;BME280;56427;51.580;4.656;2023-01-05T03:41:43;101797.59;;;9.61;100.00
69306;BME280;56427;51.580;4.656;2023-01-05T03:44:09;101802.97;;;9.58;100.00
69306;BME280;56427;51.580;4.656;2023-01-05T03:46:34;101801.19;;;9.58;100.00
69306;BME280;56427;51.580;4.656;2023-01-05T03:48:59;101798.78;;;9.55;100.00
69306;BME280;56427;51.580;4.656;2023-01-05T03:51:25;101801.09;;;9.60;100.00
69306;BME280;56427;51.580;4.656;2023-01-05T03:53:50;101794.91;;;9.63;100.00
69306;BME280;56427;51.580;4.656;2023-01-05T03:56:15;101791.69;;;9.59;100.00
69306;BME280;56427;51.580;4.656;2023-01-05T03:58:41;101796.88;;;9.59;100.00
69306;BME280;56427;51.580;4.656;2023-01-05T04:01:06;101806.91;;;9.64;100.00
69306;BME280;56427;51.580;4.656;2023-01-05T04:03:32;101799.47;;;9.59;100.00
69306;BME280;56427;51.580;4.656;2023-01-05T04:05:58;101798.59;;;9.58;100.00
69306;BME280;56427;51.580;4.656;2023-01-05T04:08:24;101801.19;;;9.58;100.00
69306;BME280;56427;51.580;4.656;2023-01-05T04:10:51;101790.94;;;9.57;100.00
69306;BME280;56427;51.580;4.656;2023-01-05T04:13:17;101798.69;;;9.57;100.00
69306;BME280;56427;51.580;4.656;2023-01-05T04:15:42;101803.69;;;9.60;100.00
69306;BME280;56427;51.580;4.656;2023-01-05T04:18:08;101799.31;;;9.48;100.00
69306;BME280;56427;51.580;4.656;2023-01-05T04:20:33;101796.72;;;9.48;100.00
69306;BME280;56427;51.580;4.656;2023-01-05T04:22:58;101802.44;;;9.53;100.00
69306;BME280;56427;51.580;4.656;2023-01-05T04:25:24;101813.72;;;9.52;100.00
69306;BME280;56427;51.580;4.656;2023-01-05T04:27:49;101805.75;;;9.55;100.00
69306;BME280;56427;51.580;4.656;2023-01-05T04:30:14;101815.38;;;9.53;100.00
69306;BME280;56427;51.580;4.656;2023-01-05T04:32:40;101813.34;;;9.58;100.00
69306;BME280;56427;51.580;4.656;2023-01-05T04:35:05;101809.91;;;9.57;100.00
69306;BME280;56427;51.580;4.656;2023-01-05T04:37:30;101810.94;;;9.55;100.00
69306;BME280;56427;51.580;4.656;2023-01-05T04:39:56;101808.25;;;9.56;100.00
69306;BME280;56427;51.580;4.656;2023-01-05T04:42:21;101813.44;;;9.56;100.00
69306;BME280;56427;51.580;4.656;2023-01-05T04:44:46;101813.63;;;9.53;100.00
69306;BME280;56427;51.580;4.656;2023-01-05T04:47:12;101819.66;;;9.54;100.00
69306;BME280;56427;51.580;4.656;2023-01-05T04:49:37;101812.44;;;9.45;100.00
69306;BME280;56427;51.580;4.656;2023-01-05T04:52:02;101820.84;;;9.48;100.00
69306;BME280;56427;51.580;4.656;2023-01-05T04:54:28;101820.94;;;9.47;100.00
69306;BME280;56427;51.580;4.656;2023-01-05T04:56:53;101823.25;;;9.51;100.00
69306;BME280;56427;51.580;4.656;2023-01-05T04:59:18;101827.53;;;9.52;100.00
69306;BME280;56427;51.580;4.656;2023-01-05T05:01:43;101821.59;;;9.50;100.00
69306;BME280;56427;51.580;4.656;2023-01-05T05:04:09;101817.97;;;9.53;100.00
69306;BME280;56427;51.580;4.656;2023-01-05T05:06:34;101809.38;;;9.52;100.00
69306;BME280;56427;51.580;4.656;2023-01-05T05:09:00;101824.94;;;9.52;100.00
69306;BME280;56427;51.580;4.656;2023-01-05T05:11:25;101832.72;;;9.52;100.00
69306;BME280;56427;51.580;4.656;2023-01-05T05:13:50;101827.81;;;9.48;100.00
69306;BME280;56427;51.580;4.656;2023-01-05T05:16:16;101837.78;;;9.54;100.00
69306;BME280;56427;51.580;4.656;2023-01-05T05:18:41;101845.56;;;9.54;100.00
69306;BME280;56427;51.580;4.656;2023-01-05T05:21:06;101833.53;;;9.53;100.00
69306;BME280;56427;51.580;4.656;2023-01-05T05:23:31;101846.41;;;9.54;100.00
69306;BME280;56427;51.580;4.656;2023-01-05T05:25:57;101847.13;;;9.56;100.00
69306;BME280;56427;51.580;4.656;2023-01-05T05:28:22;101844.53;;;9.56;100.00
69306;BME280;56427;51.580;4.656;2023-01-05T05:30:52;101850.53;;;9.57;100.00
69306;BME280;56427;51.580;4.656;2023-01-05T05:33:17;101853.13;;;9.57;100.00
69306;BME280;56427;51.580;4.656;2023-01-05T05:35:43;101855.63;;;9.58;100.00
69306;BME280;56427;51.580;4.656;2023-01-05T05:38:08;101854.16;;;9.54;100.00
69306;BME280;56427;51.580;4.656;2023-01-05T05:40:33;101849.81;;;9.55;100.00
69306;BME280;56427;51.580;4.656;2023-01-05T05:42:58;101851.38;;;9.57;100.00
69306;BME280;56427;51.580;4.656;2023-01-05T05:45:24;101857.50;;;9.56;100.00
69306;BME280;56427;51.580;4.656;2023-01-05T05:47:49;101858.63;;;9.52;100.00
69306;BME280;56427;51.580;4.656;2023-01-05T05:50:14;101862.75;;;9.55;100.00
69306;BME280;56427;51.580;4.656;2023-01-05T05:52:39;101874.91;;;9.54;100.00
69306;BME280;56427;51.580;4.656;2023-01-05T05:55:05;101882.56;;;9.56;100.00
69306;BME280;56427;51.580;4.656;2023-01-05T05:57:31;101886.09;;;9.55;100.00
69306;BME280;56427;51.580;4.656;2023-01-05T05:59:56;101883.59;;;9.53;100.00
69306;BME280;56427;51.580;4.656;2023-01-05T06:02:21;101876.00;;;9.50;100.00
69306;BME280;56427;51.580;4.656;2023-01-05T06:04:47;101892.31;;;9.52;100.00
69306;BME280;56427;51.580;4.656;2023-01-05T06:07:12;101879.34;;;9.52;100.00
69306;BME280;56427;51.580;4.656;2023-01-05T06:09:37;101886.09;;;9.55;100.00
69306;BME280;56427;51.580;4.656;2023-01-05T06:12:03;101888.69;;;9.55;100.00
69306;BME280;56427;51.580;4.656;2023-01-05T06:14:28;101886.19;;;9.53;100.00
69306;BME280;56427;51.580;4.656;2023-01-05T06:16:53;101894.13;;;9.50;100.00
69306;BME280;56427;51.580;4.656;2023-01-05T06:19:19;101899.22;;;9.52;100.00
69306;BME280;56427;51.580;4.656;2023-01-05T06:21:44;101896.91;;;9.47;100.00
69306;BME280;56427;51.580;4.656;2023-01-05T06:24:09;101902.22;;;9.46;100.00
69306;BME280;56427;51.580;4.656;2023-01-05T06:26:35;101902.22;;;9.46;100.00
69306;BME280;56427;51.580;4.656;2023-01-05T06:29:00;101902.50;;;9.41;100.00
69306;BME280;56427;51.580;4.656;2023-01-05T06:31:25;101908.31;;;9.45;100.00
69306;BME280;56427;51.580;4.656;2023-01-05T06:33:51;101916.81;;;9.47;100.00
69306;BME280;56427;51.580;4.656;2023-01-05T06:36:16;101924.69;;;9.45;100.00
69306;BME280;56427;51.580;4.656;2023-01-05T06:38:41;101920.34;;;9.46;100.00
69306;BME280;56427;51.580;4.656;2023-01-05T06:41:07;101921.19;;;9.46;100.00
69306;BME280;56427;51.580;4.656;2023-01-05T06:43:32;101923.88;;;9.45;100.00
69306;BME280;56427;51.580;4.656;2023-01-05T06:45:57;101935.13;;;9.44;100.00
69306;BME280;56427;51.580;4.656;2023-01-05T06:48:23;101932.72;;;9.40;100.00
69306;BME280;56427;51.580;4.656;2023-01-05T06:50:48;101935.31;;;9.40;100.00
69306;BME280;56427;51.580;4.656;2023-01-05T06:53:13;101937.91;;;9.40;100.00
69306;BME280;56427;51.580;4.656;2023-01-05T06:55:39;101947.19;;;9.45;100.00
69306;BME280;56427;51.580;4.656;2023-01-05T06:58:04;101952.28;;;9.46;100.00
69306;BME280;56427;51.580;4.656;2023-01-05T07:00:29;101949.88;;;9.43;100.00
69306;BME280;56427;51.580;4.656;2023-01-05T07:02:55;101956.91;;;9.41;100.00
69306;BME280;56427;51.580;4.656;2023-01-05T07:05:21;101964.78;;;9.39;100.00
69306;BME280;56427;51.580;4.656;2023-01-05T07:07:48;101962.72;;;9.45;100.00
69306;BME280;56427;51.580;4.656;2023-01-05T07:10:14;101960.88;;;9.47;100.00
69306;BME280;56427;51.580;4.656;2023-01-05T07:12:39;101959.59;;;9.39;100.00
69306;BME280;56427;51.580;4.656;2023-01-05T07:15:05;101971.50;;;9.42;100.00
69306;BME280;56427;51.580;4.656;2023-01-05T07:17:30;101964.69;;;9.41;100.00
69306;BME280;56427;51.580;4.656;2023-01-05T07:19:56;101955.50;;;9.35;100.00
69306;BME280;56427;51.580;4.656;2023-01-05T07:22:22;101959.03;;;9.34;100.00
69306;BME280;56427;51.580;4.656;2023-01-05T07:24:47;101963.28;;;9.35;100.00
69306;BME280;56427;51.580;4.656;2023-01-05T07:27:13;101973.63;;;9.35;100.00
69306;BME280;56427;51.580;4.656;2023-01-05T07:29:38;101981.41;;;9.35;100.00
69306;BME280;56427;51.580;4.656;2023-01-05T07:32:03;101979.75;;;9.34;100.00
69306;BME280;56427;51.580;4.656;2023-01-05T07:34:29;101981.59;;;9.32;100.00
69306;BME280;56427;51.580;4.656;2023-01-05T07:36:54;101981.69;;;9.31;100.00
69306;BME280;56427;51.580;4.656;2023-01-05T07:39:19;101985.03;;;9.33;100.00
69306;BME280;56427;51.580;4.656;2023-01-05T07:41:45;101978.25;;;9.30;100.00
69306;BME280;56427;51.580;4.656;2023-01-05T07:44:10;101983.34;;;9.32;100.00
69306;BME280;56427;51.580;4.656;2023-01-05T07:46:36;101988.97;;;9.24;100.00
69306;BME280;56427;51.580;4.656;2023-01-05T07:49:01;101985.00;;;9.18;100.00
69306;BME280;56427;51.580;4.656;2023-01-05T07:51:26;101985.19;;;9.15;100.00
69306;BME280;56427;51.580;4.656;2023-01-05T07:53:53;101977.41;;;9.15;100.00
69306;BME280;56427;51.580;4.656;2023-01-05T07:56:18;101993.69;;;9.17;100.00
69306;BME280;56427;51.580;4.656;2023-01-05T07:58:44;102001.00;;;9.11;100.00
69306;BME280;56427;51.580;4.656;2023-01-05T08:01:11;101995.91;;;9.09;100.00
69306;BME280;56427;51.580;4.656;2023-01-05T08:03:37;102012.13;;;9.13;100.00
69306;BME280;56427;51.580;4.656;2023-01-05T08:06:07;102010.16;;;9.16;100.00
69306;BME280;56427;51.580;4.656;2023-01-05T08:08:32;102004.81;;;9.19;100.00
69306;BME280;56427;51.580;4.656;2023-01-05T08:10:58;102010.00;;;9.19;100.00
69306;BME280;56427;51.580;4.656;2023-01-05T08:13:23;102006.72;;;9.16;100.00
69306;BME280;56427;51.580;4.656;2023-01-05T08:16:07;102003.97;;;9.19;100.00
69306;BME280;56427;51.580;4.656;2023-01-05T08:18:32;102005.00;;;9.16;100.00
69306;BME280;56427;51.580;4.656;2023-01-05T08:20:59;102003.13;;;9.18;100.00
69306;BME280;56427;51.580;4.656;2023-01-05T08:23:29;102007.31;;;9.21;100.00
69306;BME280;56427;51.580;4.656;2023-01-05T08:25:56;102012.59;;;9.19;100.00
69306;BME280;56427;51.580;4.656;2023-01-05T08:28:24;102015.91;;;9.21;100.00
69306;BME280;56427;51.580;4.656;2023-01-05T08:30:49;102009.06;;;9.20;100.00
69306;BME280;56427;51.580;4.656;2023-01-05T08:33:15;102026.19;;;9.23;100.00
69306;BME280;56427;51.580;4.656;2023-01-05T08:35:41;102027.84;;;9.24;100.00
69306;BME280;56427;51.580;4.656;2023-01-05T08:38:07;102039.06;;;9.25;100.00
69306;BME280;56427;51.580;4.656;2023-01-05T08:40:33;102031.28;;;9.25;100.00
69306;BME280;56427;51.580;4.656;2023-01-05T08:42:59;102045.88;;;9.26;100.00
69306;BME280;56427;51.580;4.656;2023-01-05T08:45:24;102040.44;;;9.30;100.00
69306;BME280;56427;51.580;4.656;2023-01-05T08:47:49;102041.25;;;9.31;100.00
69306;BME280;56427;51.580;4.656;2023-01-05T08:50:16;102048.94;;;9.32;100.00
69306;BME280;56427;51.580;4.656;2023-01-05T08:52:41;102045.72;;;9.29;100.00
69306;BME280;56427;51.580;4.656;2023-01-05T08:55:07;102050.72;;;9.32;100.00
69306;BME280;56427;51.580;4.656;2023-01-05T08:57:33;102049.81;;;9.33;100.00
69306;BME280;56427;51.580;4.656;2023-01-05T08:59:58;102053.31;;;9.32;100.00
69306;BME280;56427;51.580;4.656;2023-01-05T09:02:24;102057.75;;;9.30;100.00
69306;BME280;56427;51.580;4.656;2023-01-05T09:04:50;102055.25;;;9.28;100.00
69306;BME280;56427;51.580;4.656;2023-01-05T09:07:15;102069.75;;;9.31;100.00
69306;BME280;56427;51.580;4.656;2023-01-05T09:09:40;102055.47;;;9.39;100.00
69306;BME280;56427;51.580;4.656;2023-01-05T09:12:06;102061.47;;;9.40;100.00
69306;BME280;56427;51.580;4.656;2023-01-05T09:14:32;102063.06;;;9.43;100.00
69306;BME280;56427;51.580;4.656;2023-01-05T09:16:57;102065.81;;;9.39;100.00
69306;BME280;56427;51.580;4.656;2023-01-05T09:19:23;102059.59;;;9.42;100.00
69306;BME280;56427;51.580;4.656;2023-01-05T09:21:48;102060.28;;;9.46;100.00
69306;BME280;56427;51.580;4.656;2023-01-05T09:24:13;102059.00;;;9.53;100.00
69306;BME280;56427;51.580;4.656;2023-01-05T09:26:40;102065.19;;;9.65;100.00
69306;BME280;56427;51.580;4.656;2023-01-05T09:29:06;102060.53;;;9.55;100.00
69306;BME280;56427;51.580;4.656;2023-01-05T09:31:31;102066.97;;;9.64;100.00
69306;BME280;56427;51.580;4.656;2023-01-05T09:33:56;102068.06;;;9.74;100.00
69306;BME280;56427;51.580;4.656;2023-01-05T09:36:22;102060.31;;;9.74;100.00
69306;BME280;56427;51.580;4.656;2023-01-05T09:38:50;102070.50;;;9.77;100.00
69306;BME280;56427;51.580;4.656;2023-01-05T09:41:23;102079.28;;;9.89;100.00
69306;BME280;56427;51.580;4.656;2023-01-05T09:43:57;102076.59;;;9.91;100.00
69306;BME280;56427;51.580;4.656;2023-01-05T09:46:36;102075.88;;;9.89;100.00
69306;BME280;56427;51.580;4.656;2023-01-05T09:49:04;102078.56;;;10.02;100.00
69306;BME280;56427;51.580;4.656;2023-01-05T09:51:31;102084.66;;;10.01;100.00
69306;BME280;56427;51.580;4.656;2023-01-05T09:53:58;102086.03;;;10.06;100.00
69306;BME280;56427;51.580;4.656;2023-01-05T09:56:37;102087.50;;;10.25;100.00
69306;BME280;56427;51.580;4.656;2023-01-05T09:59:23;102087.88;;;10.19;100.00
69306;BME280;56427;51.580;4.656;2023-01-05T10:01:49;102098.63;;;10.27;100.00
69306;BME280;56427;51.580;4.656;2023-01-05T10:04:19;102084.63;;;10.44;100.00
69306;BME280;56427;51.580;4.656;2023-01-05T10:06:49;102105.50;;;10.28;100.00
69306;BME280;56427;51.580;4.656;2023-01-05T10:09:19;102097.06;;;10.39;100.00
69306;BME280;56427;51.580;4.656;2023-01-05T10:11:57;102099.56;;;10.40;100.00
69306;BME280;56427;51.580;4.656;2023-01-05T10:14:46;102108.19;;;10.26;100.00
69306;BME280;56427;51.580;4.656;2023-01-05T10:17:18;102114.00;;;10.30;100.00
69306;BME280;56427;51.580;4.656;2023-01-05T10:19:44;102107.06;;;10.16;100.00
69306;BME280;56427;51.580;4.656;2023-01-05T10:25:20;102108.91;;;10.14;100.00
69306;BME280;56427;51.580;4.656;2023-01-05T10:27:51;102114.00;;;10.16;100.00
69306;BME280;56427;51.580;4.656;2023-01-05T10:30:31;102098.25;;;10.19;100.00
69306;BME280;56427;51.580;4.656;2023-01-05T10:46:18;102115.88;;;10.28;100.00
69306;BME280;56427;51.580;4.656;2023-01-05T10:48:45;102125.41;;;10.27;100.00
69306;BME280;56427;51.580;4.656;2023-01-05T10:51:10;102122.91;;;10.40;100.00
69306;BME280;56427;51.580;4.656;2023-01-05T10:53:39;102128.38;;;10.36;100.00
69306;BME280;56427;51.580;4.656;2023-01-05T10:58:37;102124.88;;;10.37;100.00
69306;BME280;56427;51.580;4.656;2023-01-05T11:01:25;102128.09;;;10.40;100.00
69306;BME280;56427;51.580;4.656;2023-01-05T11:04:12;102131.84;;;10.36;100.00
69306;BME280;56427;51.580;4.656;2023-01-05T11:06:40;102134.03;;;10.28;100.00
69306;BME280;56427;51.580;4.656;2023-01-05T11:11:37;102123.09;;;10.37;100.00
69306;BME280;56427;51.580;4.656;2023-01-05T11:14:04;102112.91;;;10.48;100.00
69306;BME280;56427;51.580;4.656;2023-01-05T11:16:32;102121.81;;;10.44;100.00
69306;BME280;56427;51.580;4.656;2023-01-05T11:19:00;102114.38;;;10.24;100.00
69306;BME280;56427;51.580;4.656;2023-01-05T11:21:47;102115.41;;;10.36;100.00
69306;BME280;56427;51.580;4.656;2023-01-05T11:24:33;102108.63;;;10.47;100.00
69306;BME280;56427;51.580;4.656;2023-01-05T11:27:21;102108.44;;;10.50;100.00
69306;BME280;56427;51.580;4.656;2023-01-05T11:32:41;102101.00;;;10.59;100.00
69306;BME280;56427;51.580;4.656;2023-01-05T11:35:19;102112.28;;;10.72;100.00
69306;BME280;56427;51.580;4.656;2023-01-05T11:37:46;102111.03;;;10.50;100.00
69306;BME280;56427;51.580;4.656;2023-01-05T11:40:14;102104.94;;;10.37;100.00
69306;BME280;56427;51.580;4.656;2023-01-05T11:42:41;102110.75;;;10.55;100.00
69306;BME280;56427;51.580;4.656;2023-01-05T11:48:29;102106.25;;;10.72;100.00
69306;BME280;56427;51.580;4.656;2023-01-05T11:50:56;102101.00;;;10.59;100.00
69306;BME280;56427;51.580;4.656;2023-01-05T11:53:25;102105.78;;;10.79;100.00
69306;BME280;56427;51.580;4.656;2023-01-05T11:58:27;102093.19;;;11.00;100.00
69306;BME280;56427;51.580;4.656;2023-01-05T12:04:02;102089.00;;;10.98;100.00
69306;BME280;56427;51.580;4.656;2023-01-05T12:09:22;102081.97;;;10.73;100.00
69306;BME280;56427;51.580;4.656;2023-01-05T12:11:59;102081.63;;;10.64;100.00
69306;BME280;56427;51.580;4.656;2023-01-05T12:17:13;102072.13;;;10.78;100.00
69306;BME280;56427;51.580;4.656;2023-01-05T12:28:19;102073.56;;;10.82;100.00
69306;BME280;56427;51.580;4.656;2023-01-05T12:49:46;102063.56;;;11.03;100.00
69306;BME280;56427;51.580;4.656;2023-01-05T12:52:29;102058.34;;;11.03;100.00
69306;BME280;56427;51.580;4.656;2023-01-05T12:55:03;102063.03;;;10.98;100.00
69306;BME280;56427;51.580;4.656;2023-01-05T12:57:35;102055.63;;;10.92;100.00
69306;BME280;56427;51.580;4.656;2023-01-05T13:00:10;102056.25;;;10.82;100.00
69306;BME280;56427;51.580;4.656;2023-01-05T13:02:40;102049.84;;;10.74;100.00
69306;BME280;56427;51.580;4.656;2023-01-05T13:05:33;102045.09;;;10.80;100.00
69306;BME280;56427;51.580;4.656;2023-01-05T13:08:04;102053.97;;;10.91;100.00
69306;BME280;56427;51.580;4.656;2023-01-05T13:13:01;102050.53;;;10.77;100.00
69306;BME280;56427;51.580;4.656;2023-01-05T13:18:29;102050.72;;;10.74;100.00
69306;BME280;56427;51.580;4.656;2023-01-05T13:20:58;102064.66;;;10.86;100.00
69306;BME280;56427;51.580;4.656;2023-01-05T13:23:30;102046.09;;;10.92;100.00
69306;BME280;56427;51.580;4.656;2023-01-05T13:26:00;102065.72;;;10.96;100.00
69306;BME280;56427;51.580;4.656;2023-01-05T13:28:28;102062.22;;;10.70;100.00
69306;BME280;56427;51.580;4.656;2023-01-05T13:36:36;102061.81;;;10.76;100.00
69306;BME280;56427;51.580;4.656;2023-01-05T13:50:58;102061.00;;;10.76;100.00
69306;BME280;56427;51.580;4.656;2023-01-05T13:53:30;102053.13;;;10.77;100.00
69306;BME280;56427;51.580;4.656;2023-01-05T13:56:04;102052.16;;;10.78;100.00
69306;BME280;56427;51.580;4.656;2023-01-05T14:01:19;102048.88;;;10.62;100.00
69306;BME280;56427;51.580;4.656;2023-01-05T14:03:57;102048.69;;;10.65;100.00
69306;BME280;56427;51.580;4.656;2023-01-05T14:06:26;102042.78;;;10.63;100.00
69306;BME280;56427;51.580;4.656;2023-01-05T14:08:57;102047.63;;;10.55;100.00
69306;BME280;56427;51.580;4.656;2023-01-05T14:11:25;102054.22;;;10.46;100.00
69306;BME280;56427;51.580;4.656;2023-01-05T14:13:59;102052.50;;;10.32;100.00
69306;BME280;56427;51.580;4.656;2023-01-05T14:24:38;102054.44;;;10.00;100.00
69306;BME280;56427;51.580;4.656;2023-01-05T14:27:14;102044.75;;;10.03;100.00
69306;BME280;56427;51.580;4.656;2023-01-05T14:32:13;102056.97;;;9.72;100.00
69306;BME280;56427;51.580;4.656;2023-01-05T14:34:47;102056.59;;;9.64;100.00
69306;BME280;56427;51.580;4.656;2023-01-05T14:37:21;102047.06;;;9.65;100.00
69306;BME280;56427;51.580;4.656;2023-01-05T14:39:48;102043.16;;;9.86;100.00
69306;BME280;56427;51.580;4.656;2023-01-05T14:42:26;102035.66;;;9.96;100.00
69306;BME280;56427;51.580;4.656;2023-01-05T14:45:03;102037.06;;;9.87;100.00
69306;BME280;56427;51.580;4.656;2023-01-05T14:50:00;102029.75;;;9.80;100.00
69306;BME280;56427;51.580;4.656;2023-01-05T14:52:51;102035.88;;;9.79;100.00
69306;BME280;56427;51.580;4.656;2023-01-05T14:55:20;102039.81;;;9.70;100.00
69306;BME280;56427;51.580;4.656;2023-01-05T14:57:50;102031.88;;;9.73;100.00
69306;BME280;56427;51.580;4.656;2023-01-05T15:00:22;102028.38;;;9.74;100.00
69306;BME280;56427;51.580;4.656;2023-01-05T15:05:25;102032.50;;;9.76;100.00
69306;BME280;56427;51.580;4.656;2023-01-05T15:19:24;102026.41;;;9.63;100.00
69306;BME280;56427;51.580;4.656;2023-01-05T15:22:06;102023.72;;;9.65;100.00